Time;durP1;ratioP1;P1;durP2;ratioP2;P2;SDS_P1;SDS_P2;PMS_P1;PMS_P2;Temp;Humidity;BMP_temperature;BMP_pressure;BME280_temperature;BME280_humidity;BME280_pressure;Samples;Min_cycle;Max_cycle;Signal;HPM_P1;HPM_P2
2023/09/27 00:01:35;;;;;;;7.68;6.88;;;12.40;99.90;;;;;;4885631;29;20051;-68
2023/09/27 00:04:08;;;;;;;8.35;6.68;;;12.40;99.90;;;;;;4876933;29;20108;-69
2023/09/27 00:06:41;;;;;;;6.82;6.20;;;12.40;99.90;;;;;;4870613;29;20060;-67
2023/09/27 00:09:13;;;;;;;6.70;6.10;;;12.30;99.90;;;;;;4872426;29;20045;-68
2023/09/27 00:11:45;;;;;;;7.18;5.88;;;12.40;99.90;;;;;;4889178;29;20117;-70
2023/09/27 00:14:16;;;;;;;7.13;5.78;;;12.30;99.90;;;;;;4881397;29;20394;-68
2023/09/27 00:16:49;;;;;;;7.70;6.32;;;12.30;99.90;;;;;;4884480;29;20418;-68
2023/09/27 00:19:16;;;;;;;7.80;6.55;;;12.20;99.90;;;;;;4877100;29;20049;-69
2023/09/27 00:21:48;;;;;;;9.13;6.50;;;12.20;99.90;;;;;;4894918;29;20413;-70
2023/09/27 00:24:15;;;;;;;9.73;7.40;;;12.10;99.90;;;;;;4888806;29;20124;-69
2023/09/27 00:26:47;;;;;;;14.57;8.07;;;12.10;99.90;;;;;;4878093;29;20144;-68
2023/09/27 00:29:14;;;;;;;10.40;8.10;;;12.10;99.90;;;;;;4885880;29;20048;-68
2023/09/27 00:31:46;;;;;;;15.73;7.85;;;12.00;99.90;;;;;;4864517;29;20105;-69
2023/09/27 00:34:13;;;;;;;22.42;9.20;;;12.00;99.90;;;;;;4873792;29;20143;-68
2023/09/27 00:36:45;;;;;;;16.55;7.40;;;12.00;99.90;;;;;;4879161;29;20041;-69
2023/09/27 00:39:12;;;;;;;19.67;7.75;;;12.00;99.90;;;;;;4888913;29;20048;-68
2023/09/27 00:41:43;;;;;;;26.30;9.38;;;12.00;99.90;;;;;;4889065;29;20041;-69
2023/09/27 00:44:15;;;;;;;8.45;7.65;;;11.90;99.90;;;;;;4888977;29;20051;-68
2023/09/27 00:46:49;;;;;;;9.25;7.35;;;11.80;99.90;;;;;;4865819;29;20049;-68
2023/09/27 00:49:22;;;;;;;9.68;7.10;;;11.80;99.90;;;;;;4877186;29;20517;-68
2023/09/27 00:51:54;;;;;;;6.80;6.15;;;11.70;99.90;;;;;;4893677;29;20153;-68
2023/09/27 00:54:27;;;;;;;6.18;5.57;;;11.60;99.90;;;;;;4868959;29;20153;-68
2023/09/27 00:56:59;;;;;;;;;;;11.60;99.90;;;;;;4866757;29;20049;-68
2023/09/27 00:59:32;;;;;;;5.82;5.25;;;11.60;99.90;;;;;;4873339;29;20027;-69
2023/09/27 01:02:05;;;;;;;7.05;5.80;;;11.60;99.90;;;;;;4870727;29;20049;-68
2023/09/27 01:04:40;;;;;;;6.25;5.65;;;11.60;99.90;;;;;;4871921;29;20072;-70
2023/09/27 01:07:12;;;;;;;6.38;5.78;;;11.60;99.90;;;;;;4864234;29;20048;-69
2023/09/27 01:09:44;;;;;;;7.47;6.63;;;11.60;99.90;;;;;;4872912;29;20044;-68
2023/09/27 01:12:16;;;;;;;7.65;6.90;;;11.60;99.90;;;;;;4868971;29;20433;-67
2023/09/27 01:14:49;;;;;;;7.30;6.50;;;11.60;99.90;;;;;;4863583;29;20462;-69
2023/09/27 01:17:21;;;;;;;8.23;7.10;;;11.60;99.90;;;;;;4867290;29;20051;-68
2023/09/27 01:19:48;;;;;;;8.02;7.28;;;11.60;99.90;;;;;;4880115;29;20044;-68
2023/09/27 01:22:20;;;;;;;8.93;6.40;;;11.60;99.90;;;;;;4880719;29;20044;-68
2023/09/27 01:24:54;;;;;;;6.18;5.47;;;11.60;99.90;;;;;;4870742;29;20055;-68
2023/09/27 01:27:26;;;;;;;8.00;4.93;;;11.40;99.90;;;;;;4881165;29;20126;-70
2023/09/27 01:29:58;;;;;;;8.05;5.57;;;11.30;99.90;;;;;;4877511;29;20059;-69
2023/09/27 01:32:30;;;;;;;21.83;5.65;;;11.10;99.90;;;;;;4869944;29;20052;-68
2023/09/27 01:34:57;;;;;;;7.93;5.75;;;10.90;99.90;;;;;;4891338;29;20132;-68
2023/09/27 01:37:32;;;;;;;21.90;6.85;;;10.70;99.90;;;;;;4876509;29;20056;-68
2023/09/27 01:40:15;;;;;;;9.48;7.05;;;10.60;99.90;;;;;;4874204;29;20076;-68
2023/09/27 01:42:47;;;;;;;7.47;6.72;;;10.70;99.90;;;;;;4890450;29;20057;-68
2023/09/27 01:45:14;;;;;;;9.48;6.50;;;10.70;99.90;;;;;;4864813;29;20424;-69
2023/09/27 01:47:47;;;;;;;7.90;7.10;;;10.80;99.90;;;;;;4888331;29;20041;-70
2023/09/27 01:50:23;;;;;;;8.23;7.07;;;10.80;99.90;;;;;;4880501;29;20048;-68
2023/09/27 01:52:57;;;;;;;7.50;6.78;;;10.80;99.90;;;;;;4864521;29;20463;-69
2023/09/27 01:55:29;;;;;;;7.72;7.03;;;10.90;99.90;;;;;;4862980;29;20056;-68
2023/09/27 01:57:56;;;;;;;7.68;6.88;;;10.80;99.90;;;;;;4882712;29;20045;-67
2023/09/27 02:00:29;;;;;;;6.97;6.30;;;10.90;99.90;;;;;;4869397;29;20684;-68
2023/09/27 02:03:01;;;;;;;8.57;6.82;;;10.90;99.90;;;;;;4871684;29;20402;-67
2023/09/27 02:05:33;;;;;;;7.15;6.53;;;10.90;99.90;;;;;;4863314;29;20051;-68
2023/09/27 02:08:06;;;;;;;7.38;6.00;;;11.00;99.90;;;;;;4878256;29;20049;-68
2023/09/27 02:10:39;;;;;;;7.25;6.57;;;11.00;99.90;;;;;;4887380;29;20545;-68
2023/09/27 02:13:11;;;;;;;6.97;6.35;;;11.00;99.90;;;;;;4870817;29;20518;-68
2023/09/27 02:15:38;;;;;;;6.05;5.53;;;11.00;99.90;;;;;;4888354;29;20104;-69
2023/09/27 02:18:05;;;;;;;5.53;5.03;;;11.10;99.90;;;;;;4883444;29;20518;-68
2023/09/27 02:20:37;;;;;;;6.30;5.68;;;11.00;99.90;;;;;;4879950;29;20044;-68
2023/09/27 02:23:10;;;;;;;6.43;5.40;;;11.00;99.90;;;;;;4863960;29;20053;-68
2023/09/27 02:25:42;;;;;;;5.82;5.20;;;11.00;99.90;;;;;;4872820;29;20120;-68
2023/09/27 02:28:10;;;;;;;5.47;4.97;;;11.00;99.90;;;;;;4876404;29;20049;-67
2023/09/27 02:30:42;;;;;;;6.68;5.00;;;10.90;99.90;;;;;;4878864;29;20056;-68
2023/09/27 02:33:14;;;;;;;4.93;4.53;;;10.80;99.90;;;;;;4889617;29;20076;-68
2023/09/27 02:35:46;;;;;;;5.15;4.68;;;10.80;99.90;;;;;;4889804;29;20049;-68
2023/09/27 02:38:14;;;;;;;4.97;4.47;;;10.80;99.90;;;;;;4890137;29;20041;-68
2023/09/27 02:40:45;;;;;;;5.77;5.03;;;10.70;99.90;;;;;;4856197;29;20041;-69
2023/09/27 02:43:18;;;;;;;4.95;4.20;;;10.70;99.90;;;;;;4888663;29;20052;-68
2023/09/27 02:45:45;;;;;;;5.20;4.80;;;10.70;99.90;;;;;;4883433;29;20053;-70
2023/09/27 02:48:12;;;;;;;6.18;4.93;;;10.70;99.90;;;;;;4880224;29;20147;-68
2023/09/27 02:50:52;;;;;;;5.40;4.90;;;10.70;99.90;;;;;;4878141;29;20067;-69
2023/09/27 02:53:24;;;;;;;5.50;5.00;;;10.60;99.90;;;;;;4890600;29;20045;-68
2023/09/27 02:55:55;;;;;;;6.50;5.88;;;10.60;99.90;;;;;;4861104;29;20083;-68
2023/09/27 02:58:27;;;;;;;6.10;5.50;;;10.50;99.90;;;;;;4860986;29;20064;-68
2023/09/27 03:00:59;;;;;;;7.32;6.45;;;10.50;99.90;;;;;;4877531;29;20044;-68
2023/09/27 03:03:32;;;;;;;11.57;5.78;;;10.40;99.90;;;;;;4884369;29;20037;-68
2023/09/27 03:05:59;;;;;;;5.93;5.43;;;10.40;99.90;;;;;;4872738;29;20082;-67
2023/09/27 03:08:30;;;;;;;6.13;5.53;;;10.30;99.90;;;;;;4877056;29;20188;-67
2023/09/27 03:11:03;;;;;;;5.75;5.25;;;10.30;99.90;;;;;;4886787;29;20501;-68
2023/09/27 03:13:39;;;;;;;6.07;5.47;;;10.30;99.90;;;;;;4886891;29;20588;-70
2023/09/27 03:16:10;;;;;;;6.35;5.75;;;10.30;99.90;;;;;;4875410;29;20049;-68
2023/09/27 03:18:42;;;;;;;5.68;5.18;;;10.30;99.90;;;;;;4880477;29;20049;-68
2023/09/27 03:21:15;;;;;;;6.63;6.03;;;10.30;99.90;;;;;;4862172;29;20123;-68
2023/09/27 03:23:47;;;;;;;7.30;6.60;;;10.30;99.90;;;;;;4872658;29;20415;-68
2023/09/27 03:26:22;;;;;;;12.20;7.10;;;10.30;99.90;;;;;;4860930;29;20136;-68
2023/09/27 03:28:54;;;;;;;12.00;7.00;;;10.30;99.90;;;;;;4862511;29;20467;-70
2023/09/27 03:31:27;;;;;;;9.98;6.68;;;10.20;99.90;;;;;;4867893;29;20462;-68
2023/09/27 03:33:58;;;;;;;8.32;6.63;;;10.20;99.90;;;;;;4868086;29;20053;-68
2023/09/27 03:36:30;;;;;;;6.55;5.93;;;10.20;99.90;;;;;;4874680;29;20056;-70
2023/09/27 03:39:02;;;;;;;7.90;6.18;;;10.20;99.90;;;;;;4884893;29;20040;-70
2023/09/27 03:41:34;;;;;;;5.70;5.13;;;10.20;99.90;;;;;;4869386;29;20047;-69
2023/09/27 03:44:03;;;;;;;5.43;4.93;;;10.10;99.90;;;;;;4877007;29;20503;-67
2023/09/27 03:46:35;;;;;;;6.45;4.15;;;10.10;99.90;;;;;;4861112;29;20064;-69
2023/09/27 03:49:06;;;;;;;5.28;4.45;;;10.10;99.90;;;;;;4876605;29;20060;-69
2023/09/27 03:51:39;;;;;;;5.38;4.60;;;10.10;99.90;;;;;;4858827;29;20092;-69
2023/09/27 03:54:10;;;;;;;5.13;4.47;;;10.10;99.90;;;;;;4862336;29;20193;-69
2023/09/27 03:56:42;;;;;;;6.72;4.22;;;10.00;99.90;;;;;;4870965;29;20056;-69
2023/09/27 03:59:09;;;;;;;6.10;4.80;;;10.00;99.90;;;;;;4876181;29;20048;-69
2023/09/27 04:01:41;;;;;;;5.30;4.80;;;10.00;99.90;;;;;;4873790;29;20044;-67
2023/09/27 04:04:08;;;;;;;5.22;4.32;;;10.00;99.90;;;;;;4887091;29;20422;-68
2023/09/27 04:06:40;;;;;;;4.38;3.95;;;10.10;99.90;;;;;;4858715;29;20048;-69
2023/09/27 04:09:08;;;;;;;4.68;4.05;;;10.10;99.90;;;;;;4860771;29;20080;-68
2023/09/27 04:11:40;;;;;;;4.85;4.32;;;10.10;99.90;;;;;;4885963;29;20040;-70
2023/09/27 04:14:12;;;;;;;6.00;4.95;;;10.10;99.90;;;;;;4890042;29;20044;-68
2023/09/27 04:16:44;;;;;;;5.28;4.35;;;10.10;99.90;;;;;;4878307;29;20417;-68
2023/09/27 04:19:10;;;;;;;5.38;4.70;;;10.10;99.90;;;;;;4889038;29;20057;-67
2023/09/27 04:21:38;;;;;;;5.50;4.30;;;10.10;99.90;;;;;;4885476;29;20040;-68
2023/09/27 04:24:09;;;;;;;4.82;4.28;;;10.10;99.90;;;;;;4883275;29;20132;-70
2023/09/27 04:26:36;;;;;;;5.25;4.75;;;10.00;99.90;;;;;;4885204;29;20068;-69
2023/09/27 04:29:08;;;;;;;5.07;4.57;;;10.00;99.90;;;;;;4861449;29;20127;-69
2023/09/27 04:31:41;;;;;;;4.82;4.20;;;10.00;99.90;;;;;;4860709;29;20056;-68
2023/09/27 04:34:13;;;;;;;4.72;4.32;;;10.00;99.90;;;;;;4889631;29;20063;-68
2023/09/27 04:36:45;;;;;;;4.68;3.97;;;9.90;99.90;;;;;;4885027;29;20041;-69
2023/09/27 04:39:18;;;;;;;4.43;4.03;;;10.00;99.90;;;;;;4860002;29;20044;-69
2023/09/27 04:41:50;;;;;;;5.13;4.60;;;10.00;99.90;;;;;;4889361;29;20051;-69
2023/09/27 04:44:22;;;;;;;5.18;4.68;;;10.00;99.90;;;;;;4876487;29;20124;-69
2023/09/27 04:46:54;;;;;;;9.25;5.10;;;10.00;99.90;;;;;;4876672;29;20056;-68
2023/09/27 04:49:27;;;;;;;9.13;5.55;;;10.00;99.90;;;;;;4888984;29;20049;-68
2023/09/27 04:51:58;;;;;;;11.75;6.43;;;10.00;99.90;;;;;;4886744;29;20045;-69
2023/09/27 04:54:26;;;;;;;11.70;6.10;;;10.00;99.90;;;;;;4885541;29;20100;-68
2023/09/27 04:56:57;;;;;;;8.50;5.38;;;10.00;99.90;;;;;;4874576;29;20055;-68
2023/09/27 04:59:24;;;;;;;11.35;5.90;;;9.90;99.90;;;;;;4883800;29;20045;-69
2023/09/27 05:01:56;;;;;;;6.85;5.25;;;9.90;99.90;;;;;;4885154;29;20051;-68
2023/09/27 05:04:28;;;;;;;7.15;5.70;;;9.90;99.90;;;;;;4882140;29;20569;-68
2023/09/27 05:06:55;;;;;;;6.55;5.95;;;9.90;99.90;;;;;;4869159;29;20040;-68
2023/09/27 05:09:27;;;;;;;8.50;6.30;;;10.00;99.90;;;;;;4882057;29;20100;-68
2023/09/27 05:11:59;;;;;;;12.52;7.65;;;10.00;99.90;;;;;;4881483;29;20509;-68
2023/09/27 05:14:31;;;;;;;8.48;5.95;;;10.10;99.90;;;;;;4872324;29;20059;-69
2023/09/27 05:16:58;;;;;;;9.50;6.20;;;10.10;99.90;;;;;;4890719;29;20049;-69
2023/09/27 05:19:30;;;;;;;13.82;7.35;;;10.00;99.90;;;;;;4879858;29;20055;-68
2023/09/27 05:22:02;;;;;;;10.45;6.13;;;10.00;99.90;;;;;;4891363;29;20048;-69
2023/09/27 05:24:38;;;;;;;12.82;7.07;;;10.00;99.90;;;;;;4893839;29;20045;-68
2023/09/27 05:27:11;;;;;;;9.73;7.05;;;9.90;99.90;;;;;;4892527;29;20105;-68
2023/09/27 05:29:38;;;;;;;11.30;6.50;;;9.90;99.90;;;;;;4886473;29;20052;-69
2023/09/27 05:32:04;;;;;;;7.97;6.05;;;9.90;99.90;;;;;;4890134;29;20056;-68
2023/09/27 05:34:36;;;;;;;7.32;5.88;;;9.90;99.90;;;;;;4891518;29;20047;-69
2023/09/27 05:37:08;;;;;;;8.48;6.15;;;9.90;99.90;;;;;;4887621;29;20072;-68
2023/09/27 05:39:40;;;;;;;6.05;5.40;;;9.90;99.90;;;;;;4893974;29;20045;-68
2023/09/27 05:42:07;;;;;;;6.35;5.65;;;9.80;99.90;;;;;;4881379;29;20039;-68
2023/09/27 05:44:39;;;;;;;6.15;5.55;;;9.80;99.90;;;;;;4893355;29;20044;-69
2023/09/27 05:47:05;;;;;;;7.65;5.78;;;9.80;99.90;;;;;;4881816;29;20087;-69
2023/09/27 05:49:34;;;;;;;6.28;5.60;;;9.70;99.90;;;;;;4891295;29;20055;-67
2023/09/27 05:52:02;;;;;;;6.55;5.93;;;9.70;99.90;;;;;;4896491;29;20048;-68
2023/09/27 05:54:34;;;;;;;8.32;5.97;;;9.70;99.90;;;;;;4879076;29;20049;-68
2023/09/27 05:57:06;;;;;;;6.50;5.80;;;9.70;99.90;;;;;;4881602;29;20140;-69
2023/09/27 05:59:34;;;;;;;10.45;6.60;;;9.80;99.90;;;;;;4879172;29;20041;-68
2023/09/27 06:02:06;;;;;;;12.43;6.38;;;9.80;99.90;;;;;;4892168;29;20105;-68
2023/09/27 06:04:39;;;;;;;10.63;6.05;;;9.80;99.90;;;;;;4873967;29;20145;-67
2023/09/27 06:07:13;;;;;;;6.38;5.70;;;9.90;99.90;;;;;;4891226;29;20076;-68
2023/09/27 06:09:44;;;;;;;6.93;5.28;;;9.90;99.90;;;;;;4862890;29;20045;-69
2023/09/27 06:12:12;;;;;;;6.00;5.40;;;9.90;99.90;;;;;;4893111;29;20054;-68
2023/09/27 06:14:43;;;;;;;5.67;5.17;;;10.00;99.90;;;;;;4891038;29;20210;-67
2023/09/27 06:17:15;;;;;;;6.25;5.72;;;10.10;99.90;;;;;;4881119;29;20041;-68
2023/09/27 06:19:48;;;;;;;7.55;5.82;;;10.10;99.90;;;;;;4889828;29;20043;-68
2023/09/27 06:22:22;;;;;;;6.45;5.47;;;10.20;99.90;;;;;;4886510;29;20064;-69
2023/09/27 06:24:55;;;;;;;17.48;7.10;;;10.20;99.90;;;;;;4885437;29;20074;-69
2023/09/27 06:27:27;;;;;;;7.03;6.40;;;10.30;99.90;;;;;;4890278;29;20056;-69
2023/09/27 06:29:54;;;;;;;7.30;6.60;;;10.30;99.90;;;;;;4869618;29;20052;-68
2023/09/27 06:32:26;;;;;;;7.53;6.78;;;10.30;99.90;;;;;;4891266;29;20040;-67
2023/09/27 06:34:58;;;;;;;7.43;6.40;;;10.40;99.90;;;;;;4888796;29;20144;-68
2023/09/27 06:37:25;;;;;;;6.90;6.13;;;10.40;99.90;;;;;;4874098;29;20037;-67
2023/09/27 06:39:57;;;;;;;8.05;6.68;;;10.40;99.90;;;;;;4882189;29;20057;-68
2023/09/27 06:42:29;;;;;;;8.55;7.70;;;10.40;99.90;;;;;;4889904;29;20119;-68
2023/09/27 06:45:02;;;;;;;9.90;8.00;;;10.50;99.90;;;;;;4874868;29;20128;-70
2023/09/27 06:47:36;;;;;;;8.35;7.47;;;10.50;99.90;;;;;;4887049;29;20417;-69
2023/09/27 06:50:09;;;;;;;8.35;7.55;;;10.60;99.90;;;;;;4888713;29;20433;-72
2023/09/27 06:52:39;;;;;;;7.75;7.05;;;10.70;99.90;;;;;;4872742;29;20041;-69
2023/09/27 06:55:10;;;;;;;6.82;6.20;;;10.80;99.90;;;;;;4886183;29;20077;-69
2023/09/27 06:57:48;;;;;;;8.57;7.63;;;10.80;99.90;;;;;;4877935;29;20497;-69
2023/09/27 07:00:18;;;;;;;7.88;7.07;;;10.90;99.90;;;;;;4869858;29;20156;-68
2023/09/27 07:02:51;;;;;;;7.38;6.68;;;11.00;99.90;;;;;;4871365;29;20045;-68
2023/09/27 07:05:23;;;;;;;;;;;11.00;99.90;;;;;;4859127;29;20049;-69
2023/09/27 07:07:51;;;;;;;7.93;7.13;;;11.10;99.90;;;;;;4876796;29;19927;-68
2023/09/27 07:10:18;;;;;;;8.18;7.38;;;11.10;99.90;;;;;;4875876;29;20595;-67
2023/09/27 07:12:46;;;;;;;10.40;7.50;;;11.20;99.90;;;;;;4875692;29;20509;-69
2023/09/27 07:15:18;;;;;;;8.33;7.53;;;11.30;99.90;;;;;;4870737;29;20056;-67
2023/09/27 07:17:51;;;;;;;9.82;7.65;;;11.40;99.90;;;;;;4883484;29;20388;-68
2023/09/27 07:20:32;;;;;;;7.90;7.13;;;11.50;99.90;;;;;;4868069;29;20135;-68
2023/09/27 07:23:05;;;;;;;8.00;7.30;;;11.60;99.90;;;;;;4885559;29;20433;-68
2023/09/27 07:25:37;;;;;;;8.70;7.53;;;11.70;99.90;;;;;;4888350;29;20053;-68
2023/09/27 07:28:10;;;;;;;9.05;8.15;;;11.80;99.90;;;;;;4870312;29;20152;-68
2023/09/27 07:30:42;;;;;;;8.80;7.68;;;11.90;99.90;;;;;;4884178;29;20454;-68
2023/09/27 07:33:17;;;;;;;8.00;7.20;;;12.00;99.90;;;;;;4888651;29;20070;-68
2023/09/27 07:35:51;;;;;;;10.05;9.07;;;12.10;99.90;;;;;;4868490;29;20056;-68
2023/09/27 07:38:23;;;;;;;11.05;10.00;;;12.20;99.90;;;;;;4879451;29;20049;-68
2023/09/27 07:40:50;;;;;;;10.50;9.50;;;12.30;99.90;;;;;;4870677;29;20115;-68
2023/09/27 07:43:22;;;;;;;10.32;9.32;;;12.40;99.90;;;;;;4888297;29;20051;-70
2023/09/27 07:45:49;;;;;;;11.35;9.73;;;12.50;99.90;;;;;;4892547;29;20040;-68
2023/09/27 07:48:21;;;;;;;10.43;9.43;;;12.70;99.90;;;;;;4891359;29;20525;-67
2023/09/27 07:50:49;;;;;;;12.60;10.65;;;12.70;99.90;;;;;;4894832;29;20058;-68
2023/09/27 07:53:20;;;;;;;11.90;10.02;;;12.70;99.90;;;;;;4888126;29;20044;-68
2023/09/27 07:55:53;;;;;;;14.07;10.95;;;12.80;99.90;;;;;;4876294;29;20036;-70
2023/09/27 07:58:24;;;;;;;11.82;10.63;;;12.80;99.90;;;;;;4868958;29;20496;-68
2023/09/27 08:00:56;;;;;;;16.23;12.32;;;12.90;99.90;;;;;;4878189;29;21277;-68
2023/09/27 08:03:28;;;;;;;12.50;11.25;;;12.90;99.90;;;;;;4878158;29;20072;-68
2023/09/27 08:06:00;;;;;;;14.05;11.75;;;13.00;99.90;;;;;;4886382;29;20063;-68
2023/09/27 08:08:27;;;;;;;14.02;12.63;;;13.10;99.90;;;;;;4886907;29;20048;-68
2023/09/27 08:11:00;;;;;;;14.45;12.07;;;13.20;99.90;;;;;;4886645;29;20048;-68
2023/09/27 08:13:30;;;;;;;12.80;11.50;;;13.40;99.90;;;;;;4892523;29;20054;-69
2023/09/27 08:16:03;;;;;;;12.90;11.55;;;13.50;99.90;;;;;;4890095;29;20036;-68
2023/09/27 08:18:37;;;;;;;;;;;13.70;99.90;;;;;;4891924;29;20040;-68
2023/09/27 08:21:09;;;;;;;12.55;11.25;;;13.90;99.90;;;;;;4875762;29;19927;-68
2023/09/27 08:23:41;;;;;;;13.18;11.73;;;14.00;99.90;;;;;;4874695;29;20045;-68
2023/09/27 08:26:13;;;;;;;12.88;11.57;;;14.20;99.90;;;;;;4882825;29;20052;-68
2023/09/27 08:28:45;;;;;;;11.77;10.73;;;14.40;99.90;;;;;;4889301;29;20708;-69
2023/09/27 08:31:17;;;;;;;12.40;11.13;;;14.60;99.90;;;;;;4874164;29;20590;-68
2023/09/27 08:33:49;;;;;;;16.38;11.27;;;14.70;99.90;;;;;;4887984;29;20036;-70
2023/09/27 08:36:15;;;;;;;12.50;10.60;;;14.90;99.90;;;;;;4879322;29;20570;-69
2023/09/27 08:38:47;;;;;;;12.32;10.88;;;15.10;99.90;;;;;;4868168;29;20097;-68
2023/09/27 08:41:23;;;;;;;10.80;9.70;;;15.30;99.90;;;;;;4893569;29;20037;-70
2023/09/27 08:43:51;;;;;;;10.90;9.90;;;15.40;99.90;;;;;;4874935;29;20688;-70
2023/09/27 08:46:20;;;;;;;13.02;10.43;;;15.60;99.90;;;;;;4875419;29;20060;-70
2023/09/27 08:48:49;;;;;;;11.93;10.65;;;15.80;99.90;;;;;;4885741;29;20408;-69
2023/09/27 08:51:21;;;;;;;11.57;10.48;;;15.90;99.90;;;;;;4889383;29;20073;-68
2023/09/27 08:53:53;;;;;;;11.77;10.60;;;16.10;99.90;;;;;;4891220;29;20052;-69
2023/09/27 08:56:26;;;;;;;11.20;10.10;;;16.20;99.90;;;;;;4893644;29;20044;-68
2023/09/27 08:59:00;;;;;;;10.60;9.57;;;16.30;99.90;;;;;;4892846;29;20045;-67
2023/09/27 09:01:35;;;;;;;11.38;10.18;;;16.40;99.90;;;;;;4892372;29;20033;-68
2023/09/27 09:04:02;;;;;;;11.60;10.40;;;16.50;99.90;;;;;;4894030;29;20068;-68
2023/09/27 09:06:29;;;;;;;10.93;9.65;;;16.60;99.90;;;;;;4894470;29;20549;-70
2023/09/27 09:09:11;;;;;;;10.55;9.55;;;16.60;99.90;;;;;;4873029;29;20123;-68
2023/09/27 09:11:47;;;;;;;12.68;9.93;;;16.60;99.90;;;;;;4891414;29;20055;-70
2023/09/27 09:14:22;;;;;;;10.90;9.90;;;16.60;99.90;;;;;;4879030;29;20056;-68
2023/09/27 09:16:53;;;;;;;11.80;10.60;;;16.60;99.90;;;;;;4892399;29;20132;-68
2023/09/27 09:19:25;;;;;;;11.88;10.77;;;16.60;99.90;;;;;;4890367;29;20036;-69
2023/09/27 09:22:03;;;;;;;13.70;12.20;;;16.60;99.90;;;;;;4890934;29;20476;-69
2023/09/27 09:24:35;;;;;;;11.30;10.20;;;16.70;99.90;;;;;;4892611;29;20132;-69
2023/09/27 09:27:12;;;;;;;12.38;11.18;;;16.80;99.90;;;;;;4892136;29;20123;-68
2023/09/27 09:29:48;;;;;;;11.57;10.38;;;17.00;99.90;;;;;;4865143;29;20127;-70
2023/09/27 09:32:23;;;;;;;11.48;10.30;;;17.10;99.90;;;;;;4867232;29;20478;-67
2023/09/27 09:34:55;;;;;;;11.85;10.75;;;17.30;99.90;;;;;;4880108;29;20044;-68
2023/09/27 09:37:29;;;;;;;11.68;10.57;;;17.40;99.90;;;;;;4887812;29;20139;-67
2023/09/27 09:40:20;;;;;;;13.80;11.70;;;17.50;99.90;;;;;;4884300;29;20041;-67
2023/09/27 09:42:52;;;;;;;12.82;11.50;;;17.60;99.90;;;;;;4891390;29;20052;-67
2023/09/27 09:45:20;;;;;;;12.55;10.45;;;17.70;99.90;;;;;;4894293;29;20055;-67
2023/09/27 09:47:52;;;;;;;12.32;11.18;;;17.80;99.90;;;;;;4884542;29;20100;-67
2023/09/27 09:50:26;;;;;;;12.50;11.30;;;17.90;99.90;;;;;;4869232;29;20057;-69
2023/09/27 09:52:58;;;;;;;13.13;11.77;;;17.90;99.90;;;;;;4886823;29;20633;-69
2023/09/27 09:55:30;;;;;;;12.07;10.98;;;18.00;99.90;;;;;;4874357;29;20056;-69
2023/09/27 09:58:28;;;;;;;12.40;10.55;;;18.10;99.90;;;;;;4882515;29;20062;-69
2023/09/27 10:01:02;;;;;;;11.32;10.18;;;18.30;99.90;;;;;;4893765;29;20048;-67
2023/09/27 10:03:35;;;;;;;12.30;11.07;;;18.40;99.90;;;;;;4883578;29;20177;-67
2023/09/27 10:06:04;;;;;;;12.73;10.32;;;18.50;99.90;;;;;;4886493;29;20041;-67
2023/09/27 10:08:38;;;;;;;11.07;9.98;;;18.60;99.90;;;;;;4871922;29;20494;-67
2023/09/27 10:11:10;;;;;;;11.73;10.52;;;18.70;99.90;;;;;;4891907;29;20066;-69
2023/09/27 10:13:44;;;;;;;11.82;10.63;;;18.80;99.90;;;;;;4884490;29;20533;-69
2023/09/27 10:16:19;;;;;;;11.07;9.98;;;19.00;99.90;;;;;;4876012;29;20049;-68
2023/09/27 10:18:54;;;;;;;10.70;9.40;;;19.10;99.90;;;;;;4873253;29;20152;-68
2023/09/27 10:21:26;;;;;;;11.68;9.25;;;19.20;99.90;;;;;;4884002;29;20055;-68
2023/09/27 10:24:00;;;;;;;10.10;8.48;;;19.40;99.90;;;;;;4884068;29;20049;-69
2023/09/27 10:26:34;;;;;;;11.77;9.05;;;19.50;99.90;;;;;;4884825;29;20041;-66
2023/09/27 10:29:01;;;;;;;11.20;8.68;;;19.50;99.90;;;;;;4890773;29;20528;-69
2023/09/27 10:31:38;;;;;;;9.65;8.85;;;19.60;99.90;;;;;;4886539;29;20040;-68
2023/09/27 10:34:25;;;;;;;11.35;8.95;;;19.80;99.90;;;;;;4888800;29;20181;-68
2023/09/27 10:37:00;;;;;;;10.05;9.00;;;19.90;99.90;;;;;;4883587;29;20055;-66
2023/09/27 10:39:32;;;;;;;9.15;8.25;;;20.00;99.90;;;;;;4880874;29;20045;-69
2023/09/27 10:41:59;;;;;;;12.60;8.90;;;20.10;99.90;;;;;;4885006;29;20053;-66
2023/09/27 10:44:36;;;;;;;8.60;7.60;;;20.20;99.90;;;;;;4895082;29;20056;-68
2023/09/27 10:47:08;;;;;;;9.43;8.48;;;20.30;99.90;;;;;;4868361;29;20045;-67
2023/09/27 10:49:41;;;;;;;9.10;8.15;;;20.30;99.90;;;;;;4887359;29;20421;-67
2023/09/27 10:52:16;;;;;;;10.10;7.05;;;20.40;99.90;;;;;;4891361;29;20052;-68
2023/09/27 10:54:48;;;;;;;7.90;7.10;;;20.50;99.90;;;;;;4873533;29;20076;-69
2023/09/27 10:57:23;;;;;;;8.48;6.78;;;20.50;99.90;;;;;;4876232;29;20064;-69
2023/09/27 10:59:55;;;;;;;9.65;5.25;;;20.60;99.90;;;;;;4884642;29;20554;-69
2023/09/27 11:02:28;;;;;;;4.43;3.83;;;20.70;99.90;;;;;;4882507;29;20134;-69
2023/09/27 11:05:01;;;;;;;5.45;4.18;;;20.80;99.90;;;;;;4882246;29;20049;-67
2023/09/27 11:07:43;;;;;;;4.40;3.85;;;20.90;99.90;;;;;;4887623;29;20517;-67
2023/09/27 11:10:10;;;;;;;4.82;3.92;;;21.10;99.90;;;;;;4885251;29;20047;-67
2023/09/27 11:12:41;;;;;;;5.93;3.75;;;21.10;99.90;;;;;;4881904;29;20517;-70
2023/09/27 11:15:22;;;;;;;3.53;3.22;;;21.30;99.90;;;;;;4861307;29;20596;-68
2023/09/27 11:17:55;;;;;;;3.50;3.03;;;21.40;99.90;;;;;;4887204;29;20045;-68
2023/09/27 11:20:27;;;;;;;6.32;3.85;;;21.50;99.90;;;;;;4874698;29;20051;-70
2023/09/27 11:23:01;;;;;;;4.30;3.22;;;21.50;99.90;;;;;;4870835;29;20048;-68
2023/09/27 11:25:36;;;;;;;3.88;3.40;;;21.60;99.90;;;;;;4894341;29;20052;-69
2023/09/27 11:28:14;;;;;;;4.88;3.72;;;21.70;99.90;;;;;;4873985;29;20054;-68
2023/09/27 11:30:56;;;;;;;4.50;3.90;;;21.90;99.90;;;;;;4890616;29;20044;-70
2023/09/27 11:33:33;;;;;;;3.63;3.30;;;22.00;99.90;;;;;;4875144;29;20055;-68
2023/09/27 11:36:05;;;;;;;3.72;3.25;;;22.10;99.90;;;;;;4881064;29;20057;-69
2023/09/27 11:38:32;;;;;;;4.60;3.10;;;22.20;99.90;;;;;;4881583;29;20075;-68
2023/09/27 11:41:14;;;;;;;4.10;2.90;;;22.20;99.90;;;;;;4876175;29;20148;-68
2023/09/27 11:43:46;;;;;;;4.43;3.00;;;22.20;99.90;;;;;;4888087;29;20040;-69
2023/09/27 11:46:26;;;;;;;3.50;3.10;;;22.30;99.90;;;;;;4881929;29;20152;-69
2023/09/27 11:48:53;;;;;;;5.05;3.20;;;22.30;99.90;;;;;;4888746;29;20040;-69
2023/09/27 11:51:27;;;;;;;;;;;22.40;99.90;;;;;;4886125;29;20533;-69
2023/09/27 11:53:58;;;;;;;3.80;3.40;;;22.40;99.90;;;;;;4881065;29;19930;-68
2023/09/27 11:56:25;;;;;;;3.60;2.95;;;22.50;99.90;;;;;;4885996;29;20114;-68
2023/09/27 11:58:52;;;;;;;3.20;2.90;;;22.60;99.90;;;;;;4868810;29;20045;-69
2023/09/27 12:01:24;;;;;;;3.08;2.78;;;22.60;99.90;;;;;;4885667;29;20066;-70
2023/09/27 12:03:52;;;;;;;4.18;2.88;;;22.70;99.90;;;;;;4884366;29;20049;-69
2023/09/27 12:06:25;;;;;;;4.32;2.90;;;22.80;99.90;;;;;;4890794;29;20049;-69
2023/09/27 12:08:58;;;;;;;4.00;3.25;;;22.90;99.90;;;;;;4882101;29;20056;-68
2023/09/27 12:11:30;;;;;;;7.15;3.40;;;23.00;99.90;;;;;;4872062;29;20040;-70
2023/09/27 12:14:04;;;;;;;5.00;3.28;;;23.10;99.90;;;;;;4891901;29;20041;-68
2023/09/27 12:16:35;;;;;;;5.15;3.00;;;23.10;99.90;;;;;;4890396;29;20045;-69
2023/09/27 12:19:03;;;;;;;3.42;3.10;;;23.10;99.90;;;;;;4891711;29;20067;-67
2023/09/27 12:21:38;;;;;;;2.78;2.58;;;23.10;99.90;;;;;;4876622;29;20525;-68
2023/09/27 12:24:09;;;;;;;3.75;2.92;;;23.20;99.90;;;;;;4893614;29;20342;-67
2023/09/27 12:26:41;;;;;;;3.03;2.70;;;23.30;99.90;;;;;;4900951;29;20037;-69
2023/09/27 12:29:13;;;;;;;4.82;2.70;;;23.30;99.90;;;;;;4878037;29;20049;-69
2023/09/27 12:31:41;;;;;;;2.88;2.55;;;23.40;99.90;;;;;;4891290;29;20052;-68
2023/09/27 12:34:13;;;;;;;4.53;2.75;;;23.50;99.90;;;;;;4893986;29;20543;-68
2023/09/27 12:36:44;;;;;;;3.47;2.65;;;23.50;99.90;;;;;;4875671;29;20123;-67
2023/09/27 12:39:12;;;;;;;5.57;3.03;;;23.60;99.90;;;;;;4894909;29;20044;-69
2023/09/27 12:41:39;;;;;;;3.75;2.80;;;23.60;99.90;;;;;;4871541;29;20041;-68
2023/09/27 12:44:12;;;;;;;3.65;2.78;;;23.70;99.90;;;;;;4891198;29;20528;-67
2023/09/27 12:46:43;;;;;;;3.72;2.90;;;23.70;99.90;;;;;;4885835;29;20593;-68
2023/09/27 12:49:15;;;;;;;7.18;3.08;;;23.70;99.90;;;;;;4888106;29;20051;-69
2023/09/27 12:51:47;;;;;;;3.25;3.00;;;23.70;99.90;;;;;;4877044;29;20068;-69
2023/09/27 12:54:22;;;;;;;5.45;3.80;;;23.80;99.90;;;;;;4895249;29;20062;-67
2023/09/27 12:56:56;;;;;;;6.47;2.92;;;23.80;99.90;;;;;;4882447;29;20430;-66
2023/09/27 12:59:23;;;;;;;3.00;2.70;;;23.90;99.90;;;;;;4897106;29;20048;-69
2023/09/27 13:01:55;;;;;;;4.40;2.67;;;23.90;99.90;;;;;;4886835;29;20462;-67
2023/09/27 13:04:27;;;;;;;3.90;2.78;;;23.90;99.90;;;;;;4893846;29;20124;-68
2023/09/27 13:06:59;;;;;;;2.33;2.13;;;24.00;99.90;;;;;;4898687;29;20536;-68